Portada
METAR-TAF:

METAR-TAF

Aeropuertos :

Aeropuerto de Melilla

Melilla, España

latitud: 35-17N, longitud: 002-57W, altitud: 47 m

Observación

El informe se hizo hace 29 minutos, a las 15:00 UTC
Viento 6 kt del noroeste, variando entre oeste y norte-noroeste
Temperatura 17°C
Humedad 68%
Presión 1015 hPa
Visibilidad 10 km o más
Escasas nubes a una altura de 2000 ft

METAR: GEML 151500Z 31006KT 280V340 9999 FEW020 17/11 Q1015

Hora: 16:29 (15:29 UTC)

Pronóstico

El informe se hizo hace 1 hora y 29 minutos, a las 14:00 UTC
Pronóstico válido del 15 a las 15 UTC al 16 a las 15 UTC
Viento 6 kt del oeste
Visibilidad 10 km o más
Escasas nubes a una altura de 2000 ft

TAF: GEML 151400Z 1515/1615 26006KT 9999 FEW020 TX23/1614Z TN13/1607Z

Observaciones y pronósticos meteorológicos de más de 4000 aeropuertos (mensajes METAR y TAF).

Los puntos amarillos y rojos representan las estaciones disponibles.

Ponga el ratón en el punto deseado para ver el nombre de la estación.

Haga clic para ver las observaciones y los pronósticos meteorológicos.

Para cambiar el mapa : haga clic en los botones verdes con una cruz de color negro para hacer un zoom, en el botón verde con un guión para alejar o en las flechas verdes para mapas adyacentes.


METAR-TAF: